^^
Saratoga-Weather Station Historical Data
Daily Summary for May 5, 2020 Units:  Both    English   Metric
Daily Weekly Monthly Yearly Custom
  High: Low: Average:
Temperature: 55.8 °F /  13.2 °C 49.6 °F /  9.8 °C 52.9 °F /  11.6 °C
Dew Point: 52.3 °F /  11.3 °C 45.1 °F /  7.3 °C 48.7 °F /  9.3 °C
Humidity: 93% 73% 86%
Wind Speed: 12.1mph /  19.5km/h - 3.5mph /  5.6km/h
Wind Gust: 18mph /  29km/h - -
Wind- - WSW
Pressure: 29.5 in /  999.3 hPa 29.4 in /  995.9 hPa -
Precipitation: 0.54 in /  13.7 mm    
Historical Graphs
 
 
Tabular Data for May 5, 2020
Time Temperature Dew Point Pressure Wind Wind Speed Wind Gust Humidity Rainfall Rate (Hourly) solar
00:01 53.6 °F /  12 °C 49.3 °F /  9.6 °C 29.5in /  998.6hPa WSW 2.9mph /  4.7km/h 6mph /  9.7km/h 85% 0in /  0.0mm 0 W/m2
00:06 53.6 °F /  12 °C 49.3 °F /  9.6 °C 29.5in /  998.6hPa WNW 4.9mph /  7.9km/h 5mph /  8km/h 85% 0in /  0.0mm 0 W/m2
00:11 53.4 °F /  11.9 °C 49.3 °F /  9.6 °C 29.5in /  998.6hPa West 0.9mph /  1.4km/h 3mph /  4.8km/h 86% 0in /  0.0mm 0 W/m2
00:16 53.4 °F /  11.9 °C 49.3 °F /  9.6 °C 29.5in /  998.6hPa WNW 2mph /  3.2km/h 6mph /  9.7km/h 86% 0in /  0.0mm 0 W/m2
00:21 53.4 °F /  11.9 °C 49.3 °F /  9.6 °C 29.5in /  998.6hPa NW 2mph /  3.2km/h 4mph /  6.4km/h 86% 0in /  0.0mm 0 W/m2
00:26 53.4 °F /  11.9 °C 49.3 °F /  9.6 °C 29.5in /  998.6hPa West 2mph /  3.2km/h 6mph /  9.7km/h 86% 0in /  0.0mm 0 W/m2
00:31 53.2 °F /  11.8 °C 49.5 °F /  9.7 °C 29.5in /  998.6hPa WSW 2mph /  3.2km/h 6mph /  9.7km/h 87% 0in /  0.0mm 0 W/m2
00:36 53.2 °F /  11.8 °C 49.5 °F /  9.7 °C 29.5in /  999.0hPa WSW 2.9mph /  4.7km/h 8mph /  12.9km/h 87% 0in /  0.0mm 0 W/m2
00:41 53.1 °F /  11.7 °C 49.6 °F /  9.8 °C 29.5in /  999.0hPa West 0.9mph /  1.4km/h 9mph /  14.5km/h 88% 0in /  0.0mm 0 W/m2
00:46 53.1 °F /  11.7 °C 49.6 °F /  9.8 °C 29.5in /  999.0hPa West 2.9mph /  4.7km/h 3mph /  4.8km/h 88% 0in /  0.0mm 0 W/m2
00:51 53.1 °F /  11.7 °C 49.8 °F /  9.9 °C 29.5in /  999.0hPa West 6mph /  9.7km/h 9mph /  14.5km/h 89% 0in /  0.0mm 0 W/m2
00:56 53.1 °F /  11.7 °C 49.8 °F /  9.9 °C 29.5in /  999.0hPa WNW 6mph /  9.7km/h 6mph /  9.7km/h 89% 0in /  0.0mm 0 W/m2
01:01 53.1 °F /  11.7 °C 49.8 °F /  9.9 °C 29.5in /  999.0hPa West 2.9mph /  4.7km/h 7mph /  11.3km/h 89% 0in /  0.0mm 0 W/m2
01:06 53.1 °F /  11.7 °C 49.8 °F /  9.9 °C 29.5in /  999.0hPa WNW 2.9mph /  4.7km/h 6mph /  9.7km/h 89% 0in /  0.0mm 0 W/m2
01:11 53.1 °F /  11.7 °C 49.8 °F /  9.9 °C 29.5in /  999.0hPa West 2.9mph /  4.7km/h 6mph /  9.7km/h 89% 0in /  0.0mm 0 W/m2
01:16 52.9 °F /  11.6 °C 49.6 °F /  9.8 °C 29.5in /  999.0hPa WNW 2mph /  3.2km/h 7mph /  11.3km/h 89% 0in /  0.0mm 0 W/m2
01:21 52.9 °F /  11.6 °C 49.6 °F /  9.8 °C 29.5in /  999.0hPa West 2mph /  3.2km/h 4mph /  6.4km/h 89% 0in /  0.0mm 0 W/m2
01:26 52.9 °F /  11.6 °C 49.6 °F /  9.8 °C 29.5in /  999.0hPa West 2mph /  3.2km/h 7mph /  11.3km/h 89% 0in /  0.0mm 0 W/m2
01:31 52.9 °F /  11.6 °C 49.6 °F /  9.8 °C 29.5in /  999.0hPa NW 2mph /  3.2km/h 4mph /  6.4km/h 89% 0in /  0.0mm 0 W/m2
01:36 52.9 °F /  11.6 °C 49.5 °F /  9.7 °C 29.5in /  999.0hPa West 2mph /  3.2km/h 7mph /  11.3km/h 88% 0in /  0.0mm 0 W/m2
01:41 52.9 °F /  11.6 °C 49.1 °F /  9.5 °C 29.5in /  999.0hPa WNW 4mph /  6.4km/h 7mph /  11.3km/h 87% 0in /  0.0mm 0 W/m2
01:47 52.9 °F /  11.6 °C 49.1 °F /  9.5 °C 29.5in /  999.0hPa West 2.9mph /  4.7km/h 4mph /  6.4km/h 87% 0in /  0.0mm 0 W/m2
01:52 52.5 °F /  11.4 °C 48.4 °F /  9.1 °C 29.5in /  999.0hPa WSW 4mph /  6.4km/h 4mph /  6.4km/h 86% 0in /  0.0mm 0 W/m2
01:57 52.5 °F /  11.4 °C 48.2 °F /  9 °C 29.5in /  999.0hPa WSW 4mph /  6.4km/h 6mph /  9.7km/h 85% 0in /  0.0mm 0 W/m2
02:02 52.3 °F /  11.3 °C 47.7 °F /  8.7 °C 29.5in /  999.0hPa WSW 2mph /  3.2km/h 6mph /  9.7km/h 84% 0in /  0.0mm 0 W/m2
02:07 52.3 °F /  11.3 °C 47.7 °F /  8.7 °C 29.5in /  999.0hPa West 2.9mph /  4.7km/h 8mph /  12.9km/h 84% 0in /  0.0mm 0 W/m2
02:12 52.2 °F /  11.2 °C 47.5 °F /  8.6 °C 29.5in /  999.0hPa West 2.9mph /  4.7km/h 4mph /  6.4km/h 84% 0in /  0.0mm 0 W/m2
02:17 52.2 °F /  11.2 °C 47.5 °F /  8.6 °C 29.5in /  999.0hPa WNW 4.9mph /  7.9km/h 8mph /  12.9km/h 84% 0in /  0.0mm 0 W/m2
02:22 52.2 °F /  11.2 °C 47.5 °F /  8.6 °C 29.5in /  999.0hPa WNW 4mph /  6.4km/h 4mph /  6.4km/h 84% 0in /  0.0mm 0 W/m2
02:27 52 °F /  11.1 °C 47.3 °F /  8.5 °C 29.5in /  999.0hPa WNW 4mph /  6.4km/h 4mph /  6.4km/h 84% 0in /  0.0mm 0 W/m2
02:32 52 °F /  11.1 °C 47.3 °F /  8.5 °C 29.5in /  999.3hPa WSW 2.9mph /  4.7km/h 4mph /  6.4km/h 84% 0in /  0.0mm 0 W/m2
02:38 52 °F /  11.1 °C 47.7 °F /  8.7 °C 29.5in /  999.0hPa West 4mph /  6.4km/h 4mph /  6.4km/h 85% 0in /  0.0mm 0 W/m2
02:43 52 °F /  11.1 °C 47.7 °F /  8.7 °C 29.5in /  999.3hPa WSW 2.9mph /  4.7km/h 9mph /  14.5km/h 85% 0in /  0.0mm 0 W/m2
02:48 52 °F /  11.1 °C 47.7 °F /  8.7 °C 29.5in /  999.0hPa West 2.9mph /  4.7km/h 10mph /  16.1km/h 85% 0in /  0.0mm 0 W/m2
02:53 51.8 °F /  11 °C 47.5 °F /  8.6 °C 29.5in /  999.0hPa WSW 4.9mph /  7.9km/h 8mph /  12.9km/h 85% 0in /  0.0mm 0 W/m2
02:58 51.8 °F /  11 °C 47.1 °F /  8.4 °C 29.5in /  999.0hPa NNW 2.9mph /  4.7km/h 10mph /  16.1km/h 84% 0in /  0.0mm 0 W/m2
03:03 51.8 °F /  11 °C 47.1 °F /  8.4 °C 29.5in /  999.0hPa WNW 2mph /  3.2km/h 4mph /  6.4km/h 84% 0in /  0.0mm 0 W/m2
03:08 51.8 °F /  11 °C 47.1 °F /  8.4 °C 29.5in /  999.0hPa West 2mph /  3.2km/h 6mph /  9.7km/h 84% 0in /  0.0mm 0 W/m2
03:13 51.6 °F /  10.9 °C 46.9 °F /  8.3 °C 29.5in /  999.0hPa WNW 2.9mph /  4.7km/h 8mph /  12.9km/h 84% 0in /  0.0mm 0 W/m2
03:18 51.4 °F /  10.8 °C 46.8 °F /  8.2 °C 29.5in /  999.0hPa West 2mph /  3.2km/h 4mph /  6.4km/h 84% 0in /  0.0mm 0 W/m2
03:23 51.4 °F /  10.8 °C 46.4 °F /  8 °C 29.5in /  999.0hPa West 2.9mph /  4.7km/h 8mph /  12.9km/h 83% 0in /  0.0mm 0 W/m2
03:28 51.3 °F /  10.7 °C 46.2 °F /  7.9 °C 29.5in /  999.0hPa West 0.9mph /  1.4km/h 5mph /  8km/h 83% 0in /  0.0mm 0 W/m2
03:33 51.3 °F /  10.7 °C 46.2 °F /  7.9 °C 29.5in /  999.0hPa West 2mph /  3.2km/h 6mph /  9.7km/h 83% 0in /  0.0mm 0 W/m2
03:38 51.1 °F /  10.6 °C 46 °F /  7.8 °C 29.5in /  998.6hPa WSW 4mph /  6.4km/h 7mph /  11.3km/h 83% 0in /  0.0mm 0 W/m2
03:43 51.1 °F /  10.6 °C 46.4 °F /  8 °C 29.5in /  998.6hPa NW 2mph /  3.2km/h 3mph /  4.8km/h 84% 0in /  0.0mm 0 W/m2
03:48 50.9 °F /  10.5 °C 46.6 °F /  8.1 °C 29.5in /  998.6hPa West 2.9mph /  4.7km/h 3mph /  4.8km/h 85% 0in /  0.0mm 0 W/m2
03:53 50.7 °F /  10.4 °C 46.4 °F /  8 °C 29.5in /  998.6hPa West 0.9mph /  1.4km/h 6mph /  9.7km/h 85% 0in /  0.0mm 0 W/m2
03:59 50.7 °F /  10.4 °C 46.8 °F /  8.2 °C 29.5in /  998.6hPa West 2.9mph /  4.7km/h 4mph /  6.4km/h 86% 0in /  0.0mm 0 W/m2
04:04 50.7 °F /  10.4 °C 46.9 °F /  8.3 °C 29.5in /  998.6hPa WNW 4mph /  6.4km/h 7mph /  11.3km/h 87% 0in /  0.0mm 0 W/m2
04:09 50.5 °F /  10.3 °C 46.8 °F /  8.2 °C 29.5in /  998.6hPa West 2.9mph /  4.7km/h 6mph /  9.7km/h 87% 0in /  0.0mm 0 W/m2
04:14 50.5 °F /  10.3 °C 46.8 °F /  8.2 °C 29.5in /  998.6hPa WSW 2mph /  3.2km/h 8mph /  12.9km/h 87% 0in /  0.0mm 0 W/m2
04:19 50.5 °F /  10.3 °C 46.8 °F /  8.2 °C 29.5in /  998.6hPa WSW 2.9mph /  4.7km/h 6mph /  9.7km/h 87% 0in /  0.0mm 0 W/m2
04:24 50.5 °F /  10.3 °C 46.8 °F /  8.2 °C 29.5in /  998.6hPa WSW 4mph /  6.4km/h 8mph /  12.9km/h 87% 0in /  0.0mm 0 W/m2
04:29 50.4 °F /  10.2 °C 46.6 °F /  8.1 °C 29.5in /  998.6hPa WSW 2.9mph /  4.7km/h 4mph /  6.4km/h 87% 0in /  0.0mm 0 W/m2
04:34 50.4 °F /  10.2 °C 46.4 °F /  8 °C 29.5in /  998.6hPa West 2.9mph /  4.7km/h 8mph /  12.9km/h 86% 0in /  0.0mm 0 W/m2
04:39 50.4 °F /  10.2 °C 46 °F /  7.8 °C 29.5in /  998.6hPa West 4mph /  6.4km/h 8mph /  12.9km/h 85% 0in /  0.0mm 0 W/m2
04:44 50.2 °F /  10.1 °C 45.9 °F /  7.7 °C 29.5in /  998.6hPa WNW 6.9mph /  11.1km/h 7mph /  11.3km/h 85% 0in /  0.0mm 0 W/m2
04:49 50.2 °F /  10.1 °C 45.9 °F /  7.7 °C 29.5in /  998.6hPa NNW 6mph /  9.7km/h 6mph /  9.7km/h 85% 0in /  0.0mm 0 W/m2
04:54 50 °F /  10 °C 45.7 °F /  7.6 °C 29.5in /  998.6hPa WSW 4mph /  6.4km/h 6mph /  9.7km/h 85% 0in /  0.0mm 0 W/m2
04:59 50 °F /  10 °C 45.3 °F /  7.4 °C 29.5in /  998.6hPa West 2.9mph /  4.7km/h 7mph /  11.3km/h 84% 0in /  0.0mm 0 W/m2
05:04 49.8 °F /  9.9 °C 45.1 °F /  7.3 °C 29.5in /  998.6hPa West 4mph /  6.4km/h 7mph /  11.3km/h 84% 0in /  0.0mm 0 W/m2
05:09 49.8 °F /  9.9 °C 45.1 °F /  7.3 °C 29.5in /  998.6hPa West 6mph /  9.7km/h 8mph /  12.9km/h 84% 0in /  0.0mm 0 W/m2
05:14 49.8 °F /  9.9 °C 45.1 °F /  7.3 °C 29.5in /  998.6hPa West 6.9mph /  11.1km/h 7mph /  11.3km/h 84% 0in /  0.0mm 0 W/m2
05:19 49.8 °F /  9.9 °C 45.1 °F /  7.3 °C 29.5in /  998.6hPa WSW 6.9mph /  11.1km/h 8mph /  12.9km/h 84% 0in /  0.0mm 0 W/m2
05:24 49.8 °F /  9.9 °C 45.1 °F /  7.3 °C 29.5in /  998.6hPa WNW 2mph /  3.2km/h 6mph /  9.7km/h 84% 0in /  0.0mm 0 W/m2
05:29 49.8 °F /  9.9 °C 45.5 °F /  7.5 °C 29.5in /  998.6hPa WSW 4mph /  6.4km/h 6mph /  9.7km/h 85% 0in /  0.0mm 0 W/m2
05:34 49.6 °F /  9.8 °C 45.3 °F /  7.4 °C 29.5in /  998.6hPa West 6.9mph /  11.1km/h 7mph /  11.3km/h 85% 0in /  0.0mm 0 W/m2
05:39 49.6 °F /  9.8 °C 45.7 °F /  7.6 °C 29.5in /  998.6hPa West 2mph /  3.2km/h 5mph /  8km/h 86% 0in /  0.0mm 0 W/m2
05:44 49.6 °F /  9.8 °C 45.9 °F /  7.7 °C 29.5in /  999.0hPa NW 2mph /  3.2km/h 8mph /  12.9km/h 87% 0in /  0.0mm 5 W/m2
05:49 49.6 °F /  9.8 °C 45.9 °F /  7.7 °C 29.5in /  999.0hPa WSW 6mph /  9.7km/h 7mph /  11.3km/h 87% 0in /  0.0mm 5 W/m2
05:54 49.6 °F /  9.8 °C 45.9 °F /  7.7 °C 29.5in /  998.6hPa SSW 4mph /  6.4km/h 9mph /  14.5km/h 87% 0in /  0.0mm 7 W/m2
05:59 49.6 °F /  9.8 °C 46.2 °F /  7.9 °C 29.5in /  998.6hPa WSW 4.9mph /  7.9km/h 8mph /  12.9km/h 88% 0in /  0.0mm 7 W/m2
06:04 49.6 °F /  9.8 °C 46.2 °F /  7.9 °C 29.5in /  998.6hPa West 0.9mph /  1.4km/h 6mph /  9.7km/h 88% 0in /  0.0mm 9 W/m2
06:09 49.6 °F /  9.8 °C 46.2 °F /  7.9 °C 29.5in /  999.0hPa WNW 2.9mph /  4.7km/h 4mph /  6.4km/h 88% 0in /  0.0mm 12 W/m2
06:14 49.6 °F /  9.8 °C 46.6 °F /  8.1 °C 29.5in /  999.0hPa West 2mph /  3.2km/h 2mph /  3.2km/h 89% 0in /  0.0mm 18 W/m2
06:20 49.6 °F /  9.8 °C 46.6 °F /  8.1 °C 29.5in /  999.0hPa West 2.9mph /  4.7km/h 5mph /  8km/h 89% 0in /  0.0mm 19 W/m2
06:25 49.6 °F /  9.8 °C 46.6 °F /  8.1 °C 29.5in /  999.0hPa West 4mph /  6.4km/h 6mph /  9.7km/h 89% 0in /  0.0mm 23 W/m2
06:30 49.6 °F /  9.8 °C 46.6 °F /  8.1 °C 29.5in /  999.0hPa WSW 2.9mph /  4.7km/h 7mph /  11.3km/h 89% 0in /  0.0mm 28 W/m2
06:35 49.6 °F /  9.8 °C 46.6 °F /  8.1 °C 29.5in /  999.0hPa West 2mph /  3.2km/h 6mph /  9.7km/h 89% 0in /  0.0mm 33 W/m2
06:40 49.6 °F /  9.8 °C 46.6 °F /  8.1 °C 29.5in /  999.0hPa Calm   2mph /  3.2km/h 89% 0in /  0.0mm 39 W/m2
06:45 49.8 °F /  9.9 °C 46.9 °F /  8.3 °C 29.5in /  999.0hPa West 2mph /  3.2km/h 6mph /  9.7km/h 90% 0in /  0.0mm 42 W/m2
06:50 49.6 °F /  9.8 °C 46.8 °F /  8.2 °C 29.5in /  998.6hPa ENE 0.9mph /  1.4km/h 2mph /  3.2km/h 90% 0in /  0.0mm 53 W/m2
06:55 49.8 °F /  9.9 °C 46.9 °F /  8.3 °C 29.5in /  999.0hPa ENE 2mph /  3.2km/h 4mph /  6.4km/h 90% 0in /  0.0mm 58 W/m2
07:00 49.8 °F /  9.9 °C 46.9 °F /  8.3 °C 29.5in /  999.0hPa Calm   3mph /  4.8km/h 90% 0in /  0.0mm 62 W/m2
07:05 49.8 °F /  9.9 °C 46.9 °F /  8.3 °C 29.5in /  999.0hPa WSW 2mph /  3.2km/h 3mph /  4.8km/h 90% 0in /  0.0mm 65 W/m2
07:10 49.8 °F /  9.9 °C 46.9 °F /  8.3 °C 29.5in /  999.0hPa Calm   3mph /  4.8km/h 90% 0in /  0.0mm 58 W/m2
07:15 50.2 °F /  10.1 °C 47.7 °F /  8.7 °C 29.5in /  999.0hPa Calm   5mph /  8km/h 91% 0in /  0.0mm 62 W/m2
07:20 50.2 °F /  10.1 °C 47.3 °F /  8.5 °C 29.5in /  999.0hPa WNW 0.9mph /  1.4km/h 4mph /  6.4km/h 90% 0in /  0.0mm 67 W/m2
07:25 50.4 °F /  10.2 °C 47.8 °F /  8.8 °C 29.5in /  999.0hPa NW 0.9mph /  1.4km/h 3mph /  4.8km/h 91% 0in /  0.0mm 70 W/m2
07:30 50.5 °F /  10.3 °C 48 °F /  8.9 °C 29.5in /  999.0hPa Calm   3mph /  4.8km/h 91% 0in /  0.0mm 97 W/m2
07:35 50.7 °F /  10.4 °C 47.8 °F /  8.8 °C 29.5in /  999.0hPa NNW 0.9mph /  1.4km/h 3mph /  4.8km/h 90% 0in /  0.0mm 118 W/m2
07:40 50.7 °F /  10.4 °C 47.8 °F /  8.8 °C 29.5in /  999.0hPa North 0.9mph /  1.4km/h 7mph /  11.3km/h 90% 0in /  0.0mm 121 W/m2
07:45 51.1 °F /  10.6 °C 48.2 °F /  9 °C 29.5in /  999.0hPa WSW 0.9mph /  1.4km/h 2mph /  3.2km/h 90% 0in /  0.0mm 113 W/m2
07:50 51.3 °F /  10.7 °C 48.2 °F /  9 °C 29.5in /  998.6hPa WSW 0.9mph /  1.4km/h 7mph /  11.3km/h 89% 0in /  0.0mm 118 W/m2
07:55 51.3 °F /  10.7 °C 48.2 °F /  9 °C 29.5in /  998.6hPa Calm   2mph /  3.2km/h 89% 0in /  0.0mm 130 W/m2
08:00 51.4 °F /  10.8 °C 48.4 °F /  9.1 °C 29.5in /  999.0hPa NW 0.9mph /  1.4km/h 3mph /  4.8km/h 89% 0in /  0.0mm 111 W/m2
08:05 51.4 °F /  10.8 °C 48.4 °F /  9.1 °C 29.5in /  999.0hPa NNE 2mph /  3.2km/h 2mph /  3.2km/h 89% 0in /  0.0mm 105 W/m2
08:10 51.6 °F /  10.9 °C 48.6 °F /  9.2 °C 29.5in /  998.6hPa WSW 2mph /  3.2km/h 6mph /  9.7km/h 89% 0in /  0.0mm 121 W/m2
08:15 51.6 °F /  10.9 °C 48.2 °F /  9 °C 29.5in /  998.6hPa West 8.1mph /  13km/h 8mph /  12.9km/h 88% 0in /  0.0mm 169 W/m2
08:20 51.8 °F /  11 °C 48.4 °F /  9.1 °C 29.5in /  998.6hPa West 6mph /  9.7km/h 6mph /  9.7km/h 88% 0in /  0.0mm 165 W/m2
08:25 52 °F /  11.1 °C 48.6 °F /  9.2 °C 29.5in /  998.6hPa WNW 0.9mph /  1.4km/h 2mph /  3.2km/h 88% 0in /  0.0mm 160 W/m2
08:30 52 °F /  11.1 °C 48.6 °F /  9.2 °C 29.5in /  998.6hPa WNW 2.9mph /  4.7km/h 3mph /  4.8km/h 88% 0in /  0.0mm 167 W/m2
08:35 52.2 °F /  11.2 °C 48.4 °F /  9.1 °C 29.5in /  998.6hPa WNW 2mph /  3.2km/h 3mph /  4.8km/h 87% 0in /  0.0mm 169 W/m2
08:40 52.2 °F /  11.2 °C 48.4 °F /  9.1 °C 29.5in /  998.6hPa North 0.9mph /  1.4km/h 3mph /  4.8km/h 87% 0in /  0.0mm 149 W/m2
08:45 52.3 °F /  11.3 °C 48.6 °F /  9.2 °C 29.5in /  998.6hPa NNW 2.9mph /  4.7km/h 4mph /  6.4km/h 87% 0in /  0.0mm 169 W/m2
08:50 52.5 °F /  11.4 °C 48.4 °F /  9.1 °C 29.5in /  998.6hPa WNW 2mph /  3.2km/h 4mph /  6.4km/h 86% 0in /  0.0mm 181 W/m2
08:55 52.7 °F /  11.5 °C 48.6 °F /  9.2 °C 29.5in /  998.6hPa WNW 2mph /  3.2km/h 3mph /  4.8km/h 86% 0in /  0.0mm 193 W/m2
09:00 52.9 °F /  11.6 °C 48.6 °F /  9.2 °C 29.5in /  998.6hPa NNW 4mph /  6.4km/h 7mph /  11.3km/h 85% 0in /  0.0mm 234 W/m2
09:05 53.1 °F /  11.7 °C 48.9 °F /  9.4 °C 29.5in /  998.6hPa Calm   3mph /  4.8km/h 86% 0in /  0.0mm 197 W/m2
09:10 53.2 °F /  11.8 °C 48.9 °F /  9.4 °C 29.5in /  998.6hPa Calm   5mph /  8km/h 85% 0in /  0.0mm 151 W/m2
09:15 53.2 °F /  11.8 °C 48.6 °F /  9.2 °C 29.5in /  998.3hPa NNE 2mph /  3.2km/h 4mph /  6.4km/h 84% 0in /  0.0mm 172 W/m2
09:20 53.2 °F /  11.8 °C 48.6 °F /  9.2 °C 29.5in /  998.3hPa NW 2mph /  3.2km/h 4mph /  6.4km/h 84% 0in /  0.0mm 232 W/m2
09:25 53.4 °F /  11.9 °C 48.7 °F /  9.3 °C 29.5in /  998.3hPa SW 0.9mph /  1.4km/h 8mph /  12.9km/h 84% 0in /  0.0mm 338 W/m2
09:31 53.6 °F /  12 °C 48.9 °F /  9.4 °C 29.5in /  998.3hPa NE 0.9mph /  1.4km/h 3mph /  4.8km/h 84% 0in /  0.0mm 281 W/m2
09:36 54 °F /  12.2 °C 48.9 °F /  9.4 °C 29.5in /  998.3hPa NNE 2.9mph /  4.7km/h 8mph /  12.9km/h 83% 0in /  0.0mm 264 W/m2
09:41 54.1 °F /  12.3 °C 48.4 °F /  9.1 °C 29.5in /  998.3hPa WNW 4mph /  6.4km/h 6mph /  9.7km/h 81% 0in /  0.0mm 206 W/m2
09:46 54.1 °F /  12.3 °C 48.4 °F /  9.1 °C 29.5in /  998.3hPa WSW 2mph /  3.2km/h 4mph /  6.4km/h 81% 0in /  0.0mm 137 W/m2
09:51 54.1 °F /  12.3 °C 48.4 °F /  9.1 °C 29.5in /  998.3hPa SSW 0.9mph /  1.4km/h 2mph /  3.2km/h 81% 0in /  0.0mm 146 W/m2
09:56 54.1 °F /  12.3 °C 48 °F /  8.9 °C 29.5in /  998.3hPa SSE 4mph /  6.4km/h 4mph /  6.4km/h 80% 0in /  0.0mm 174 W/m2
10:01 54.5 °F /  12.5 °C 48.2 °F /  9 °C 29.5in /  998.0hPa NNW 4.9mph /  7.9km/h 5mph /  8km/h 79% 0in /  0.0mm 297 W/m2
10:06 54.7 °F /  12.6 °C 48.4 °F /  9.1 °C 29.5in /  998.0hPa WSW 11mph /  17.7km/h 13mph /  20.9km/h 79% 0in /  0.0mm 334 W/m2
10:11 54.7 °F /  12.6 °C 48.4 °F /  9.1 °C 29.5in /  998.0hPa NNE 2.9mph /  4.7km/h 3mph /  4.8km/h 79% 0in /  0.0mm 239 W/m2
10:16 54.9 °F /  12.7 °C 47.8 °F /  8.8 °C 29.5in /  998.0hPa SW 2.9mph /  4.7km/h 11mph /  17.7km/h 77% 0in /  0.0mm 258 W/m2
10:21 55.2 °F /  12.9 °C 48.2 °F /  9 °C 29.5in /  998.0hPa South 4mph /  6.4km/h 6mph /  9.7km/h 77% 0in /  0.0mm 276 W/m2
10:26 55.4 °F /  13 °C 47.7 °F /  8.7 °C 29.5in /  998.0hPa WNW 2.9mph /  4.7km/h 7mph /  11.3km/h 75% 0in /  0.0mm 404 W/m2
10:31 55.6 °F /  13.1 °C 47.5 °F /  8.6 °C 29.5in /  998.0hPa Calm   6mph /  9.7km/h 74% 0in /  0.0mm 137 W/m2
10:36 55.6 °F /  13.1 °C 47.5 °F /  8.6 °C 29.5in /  998.0hPa West 2mph /  3.2km/h 2mph /  3.2km/h 74% 0in /  0.0mm 93 W/m2
10:41 55.2 °F /  12.9 °C 47.5 °F /  8.6 °C 29.5in /  998.0hPa ENE 2.9mph /  4.7km/h 4mph /  6.4km/h 75% 0in /  0.0mm 83 W/m2
10:46 55 °F /  12.8 °C 47.3 °F /  8.5 °C 29.5in /  998.0hPa East 2mph /  3.2km/h 7mph /  11.3km/h 75% 0in /  0.0mm 35 W/m2
10:51 54.5 °F /  12.5 °C 46.8 °F /  8.2 °C 29.5in /  998.0hPa NW 2mph /  3.2km/h 5mph /  8km/h 75% 0in /  0.0mm 33 W/m2
10:56 54.1 °F /  12.3 °C 46.8 °F /  8.2 °C 29.5in /  997.6hPa West 0.9mph /  1.4km/h 3mph /  4.8km/h 76% 0in /  0.0mm 79 W/m2
11:01 54.1 °F /  12.3 °C 47.1 °F /  8.4 °C 29.5in /  997.6hPa NNW 2mph /  3.2km/h 5mph /  8km/h 77% 0in /  0.0mm 243 W/m2
11:06 54.3 °F /  12.4 °C 47.3 °F /  8.5 °C 29.5in /  997.6hPa WSW 0.9mph /  1.4km/h 11mph /  17.7km/h 77% 0in /  0.0mm 323 W/m2
11:11 54.9 °F /  12.7 °C 47.8 °F /  8.8 °C 29.5in /  997.6hPa WNW 2.9mph /  4.7km/h 6mph /  9.7km/h 77% 0in /  0.0mm 693 W/m2
11:16 55.4 °F /  13 °C 48 °F /  8.9 °C 29.5in /  997.6hPa NNW 0.9mph /  1.4km/h 3mph /  4.8km/h 76% 0in /  0.0mm 292 W/m2
11:21 55.6 °F /  13.1 °C 47.8 °F /  8.8 °C 29.5in /  997.3hPa ENE 2mph /  3.2km/h 8mph /  12.9km/h 75% 0in /  0.0mm 345 W/m2
11:26 55.8 °F /  13.2 °C 47.3 °F /  8.5 °C 29.5in /  997.3hPa NNW 8.1mph /  13km/h 9mph /  14.5km/h 73% 0in /  0.0mm 302 W/m2
11:31 55.8 °F /  13.2 °C 47.3 °F /  8.5 °C 29.5in /  997.3hPa SW 2.9mph /  4.7km/h 9mph /  14.5km/h 73% 0in /  0.0mm 114 W/m2
11:36 55.6 °F /  13.1 °C 47.5 °F /  8.6 °C 29.5in /  997.3hPa WNW 2.9mph /  4.7km/h 8mph /  12.9km/h 74% 0in /  0.0mm 160 W/m2
11:41 55 °F /  12.8 °C 46.9 °F /  8.3 °C 29.5in /  997.3hPa SW 2mph /  3.2km/h 7mph /  11.3km/h 74% 0in /  0.0mm 283 W/m2
11:46 55.2 °F /  12.9 °C 47.5 °F /  8.6 °C 29.5in /  997.3hPa NNW 0.9mph /  1.4km/h 7mph /  11.3km/h 75% 0in /  0.0mm 221 W/m2
11:51 55 °F /  12.8 °C 46.9 °F /  8.3 °C 29.4in /  997.0hPa WNW 11mph /  17.7km/h 11mph /  17.7km/h 74% 0in /  0.0mm 218 W/m2
11:56 54.7 °F /  12.6 °C 47.3 °F /  8.5 °C 29.4in /  997.0hPa WNW 8.1mph /  13km/h 9mph /  14.5km/h 76% 0in /  0.0mm 155 W/m2
12:01 54.7 °F /  12.6 °C 47.3 °F /  8.5 °C 29.5in /  997.3hPa NW 4mph /  6.4km/h 4mph /  6.4km/h 76% 0in /  0.0mm 95 W/m2
12:06 54.3 °F /  12.4 °C 47.7 °F /  8.7 °C 29.4in /  997.0hPa NW 4mph /  6.4km/h 8mph /  12.9km/h 78% 0in /  0.0mm 179 W/m2
12:11 54.1 °F /  12.3 °C 47.8 °F /  8.8 °C 29.5in /  997.3hPa NW 8.1mph /  13km/h 12mph /  19.3km/h 79% 0in /  0.0mm 174 W/m2
12:16 54.1 °F /  12.3 °C 48.4 °F /  9.1 °C 29.4in /  997.0hPa NW 4mph /  6.4km/h 7mph /  11.3km/h 81% 0in /  0.0mm 285 W/m2
12:21 54.1 °F /  12.3 °C 48 °F /  8.9 °C 29.4in /  997.0hPa NE 10.1mph /  16.3km/h 12mph /  19.3km/h 80% 0in /  0.0mm 383 W/m2
12:26 54.7 °F /  12.6 °C 48.6 °F /  9.2 °C 29.4in /  997.0hPa NNW 2.9mph /  4.7km/h 4mph /  6.4km/h 80% 0in /  0.0mm 209 W/m2
12:31 54.7 °F /  12.6 °C 48.6 °F /  9.2 °C 29.4in /  997.0hPa NE 4mph /  6.4km/h 11mph /  17.7km/h 80% 0in /  0.0mm 241 W/m2
12:36 54.7 °F /  12.6 °C 48.6 °F /  9.2 °C 29.4in /  997.0hPa NE 2mph /  3.2km/h 6mph /  9.7km/h 80% 0in /  0.0mm 250 W/m2
12:41 54.9 °F /  12.7 °C 48.7 °F /  9.3 °C 29.4in /  996.6hPa NW 8.1mph /  13km/h 18mph /  29km/h 80% 0in /  0.0mm 301 W/m2
12:47 54.7 °F /  12.6 °C 48.6 °F /  9.2 °C 29.4in /  996.6hPa NNW 2.9mph /  4.7km/h 9mph /  14.5km/h 80% 0in /  0.0mm 327 W/m2
12:52 54.9 °F /  12.7 °C 49.1 °F /  9.5 °C 29.4in /  997.0hPa ENE 2.9mph /  4.7km/h 8mph /  12.9km/h 81% 0in /  0.0mm 281 W/m2
12:57 54.9 °F /  12.7 °C 49.5 °F /  9.7 °C 29.4in /  996.6hPa South 4mph /  6.4km/h 4mph /  6.4km/h 82% 0in /  0.0mm 246 W/m2
13:02 54.7 °F /  12.6 °C 49.3 °F /  9.6 °C 29.4in /  996.6hPa WNW 2mph /  3.2km/h 8mph /  12.9km/h 82% 0in /  0.0mm 255 W/m2
13:07 54.7 °F /  12.6 °C 49.3 °F /  9.6 °C 29.4in /  996.3hPa NNW 4mph /  6.4km/h 12mph /  19.3km/h 82% 0in /  0.0mm 142 W/m2
13:12 54.3 °F /  12.4 °C 49.3 °F /  9.6 °C 29.4in /  996.6hPa NNW 4mph /  6.4km/h 6mph /  9.7km/h 83% 0in /  0.0mm 95 W/m2
13:17 54 °F /  12.2 °C 49.3 °F /  9.6 °C 29.4in /  996.3hPa North 0.9mph /  1.4km/h 8mph /  12.9km/h 84% 0in /  0.0mm 134 W/m2
13:22 53.8 °F /  12.1 °C 49.1 °F /  9.5 °C 29.4in /  996.3hPa ENE 0.9mph /  1.4km/h 7mph /  11.3km/h 84% 0.01in /  0.2mm 104 W/m2
13:27 53.8 °F /  12.1 °C 49.5 °F /  9.7 °C 29.4in /  996.3hPa West 2mph /  3.2km/h 7mph /  11.3km/h 85% 0.01in /  0.2mm 127 W/m2
13:32 53.6 °F /  12 °C 49.5 °F /  9.7 °C 29.4in /  996.3hPa ENE 4.9mph /  7.9km/h 7mph /  11.3km/h 86% 0.01in /  0.2mm 107 W/m2
13:37 53.4 °F /  11.9 °C 49.6 °F /  9.8 °C 29.4in /  996.3hPa Calm   4mph /  6.4km/h 87% 0.02in /  0.5mm 114 W/m2
13:42 53.4 °F /  11.9 °C 49.6 °F /  9.8 °C 29.4in /  996.3hPa East 2mph /  3.2km/h 4mph /  6.4km/h 87% 0.02in /  0.5mm 114 W/m2
13:47 53.4 °F /  11.9 °C 50 °F /  10 °C 29.4in /  996.3hPa NNW 0.9mph /  1.4km/h 2mph /  3.2km/h 88% 0.03in /  0.8mm 104 W/m2
13:52 53.4 °F /  11.9 °C 50 °F /  10 °C 29.4in /  996.3hPa ENE 2.9mph /  4.7km/h 4mph /  6.4km/h 88% 0.03in /  0.8mm 90 W/m2
13:57 53.4 °F /  11.9 °C 50.2 °F /  10.1 °C 29.4in /  996.3hPa North 0.9mph /  1.4km/h 1mph /  1.6km/h 89% 0.04in /  1.0mm 97 W/m2
14:02 53.4 °F /  11.9 °C 50.2 °F /  10.1 °C 29.4in /  996.3hPa NNE 4mph /  6.4km/h 6mph /  9.7km/h 89% 0.06in /  1.5mm 130 W/m2
14:07 53.4 °F /  11.9 °C 50.2 °F /  10.1 °C 29.4in /  996.3hPa West 2.9mph /  4.7km/h 4mph /  6.4km/h 89% 0.06in /  1.5mm 127 W/m2
14:12 53.4 °F /  11.9 °C 50.5 °F /  10.3 °C 29.4in /  996.3hPa NE 2.9mph /  4.7km/h 3mph /  4.8km/h 90% 0.07in /  1.8mm 244 W/m2
14:17 53.8 °F /  12.1 °C 50.9 °F /  10.5 °C 29.4in /  996.3hPa WSW 12.1mph /  19.5km/h 12mph /  19.3km/h 90% 0.07in /  1.8mm 197 W/m2
14:22 53.8 °F /  12.1 °C 51.3 °F /  10.7 °C 29.4in /  996.3hPa West 2mph /  3.2km/h 10mph /  16.1km/h 91% 0.07in /  1.8mm 169 W/m2
14:27 54 °F /  12.2 °C 51.4 °F /  10.8 °C 29.4in /  996.3hPa NW 10.1mph /  16.3km/h 12mph /  19.3km/h 91% 0.07in /  1.8mm 151 W/m2
14:32 53.8 °F /  12.1 °C 51.3 °F /  10.7 °C 29.4in /  996.3hPa SSW 2mph /  3.2km/h 9mph /  14.5km/h 91% 0.07in /  1.8mm 105 W/m2
14:37 53.6 °F /  12 °C 51.1 °F /  10.6 °C 29.4in /  996.3hPa NW 2.9mph /  4.7km/h 4mph /  6.4km/h 91% 0.06in /  1.5mm 142 W/m2
14:42 53.8 °F /  12.1 °C 51.3 °F /  10.7 °C 29.4in /  996.3hPa North 4mph /  6.4km/h 6mph /  9.7km/h 91% 0.06in /  1.5mm 123 W/m2
14:47 53.8 °F /  12.1 °C 51.3 °F /  10.7 °C 29.4in /  996.3hPa NNW 2.9mph /  4.7km/h 3mph /  4.8km/h 91% 0.06in /  1.5mm 151 W/m2
14:52 53.8 °F /  12.1 °C 51.3 °F /  10.7 °C 29.4in /  996.3hPa North 2.9mph /  4.7km/h 8mph /  12.9km/h 91% 0.06in /  1.5mm 162 W/m2
14:57 54 °F /  12.2 °C 51.6 °F /  10.9 °C 29.4in /  996.3hPa West 4mph /  6.4km/h 12mph /  19.3km/h 92% 0.04in /  1.0mm 142 W/m2
15:02 54 °F /  12.2 °C 51.4 °F /  10.8 °C 29.4in /  996.3hPa NNE 8.9mph /  14.3km/h 10mph /  16.1km/h 91% 0.04in /  1.0mm 114 W/m2
15:07 54 °F /  12.2 °C 51.4 °F /  10.8 °C 29.4in /  996.3hPa WNW 2mph /  3.2km/h 12mph /  19.3km/h 91% 0.03in /  0.8mm 95 W/m2
15:12 54 °F /  12.2 °C 51.4 °F /  10.8 °C 29.4in /  996.3hPa SSW 0.9mph /  1.4km/h 7mph /  11.3km/h 91% 0.04in /  1.0mm 209 W/m2
15:17 54.1 °F /  12.3 °C 51.8 °F /  11 °C 29.4in /  996.3hPa ENE 2mph /  3.2km/h 12mph /  19.3km/h 92% 0.04in /  1.0mm 190 W/m2
15:22 54.3 °F /  12.4 °C 52 °F /  11.1 °C 29.4in /  996.3hPa SSW 2.9mph /  4.7km/h 16mph /  25.7km/h 92% 0.04in /  1.0mm 197 W/m2
15:27 54.3 °F /  12.4 °C 52 °F /  11.1 °C 29.4in /  996.3hPa NE 2.9mph /  4.7km/h 7mph /  11.3km/h 92% 0.05in /  1.3mm 192 W/m2
15:32 54.1 °F /  12.3 °C 51.8 °F /  11 °C 29.4in /  996.3hPa NW 10.1mph /  16.3km/h 16mph /  25.7km/h 92% 0.06in /  1.5mm 120 W/m2
15:37 54.1 °F /  12.3 °C 51.8 °F /  11 °C 29.4in /  996.3hPa NW 6.9mph /  11.1km/h 10mph /  16.1km/h 92% 0.06in /  1.5mm 114 W/m2
15:43 54.1 °F /  12.3 °C 51.8 °F /  11 °C 29.4in /  996.3hPa NW 2mph /  3.2km/h 5mph /  8km/h 92% 0.06in /  1.5mm 109 W/m2
15:48 54.1 °F /  12.3 °C 51.8 °F /  11 °C 29.4in /  996.3hPa NW 2.9mph /  4.7km/h 10mph /  16.1km/h 92% 0.07in /  1.8mm 146 W/m2
15:53 54.1 °F /  12.3 °C 51.8 °F /  11 °C 29.4in /  996.3hPa SW 0.9mph /  1.4km/h 5mph /  8km/h 92% 0.07in /  1.8mm 137 W/m2
15:58 54.1 °F /  12.3 °C 51.8 °F /  11 °C 29.4in /  996.3hPa NW 4.9mph /  7.9km/h 11mph /  17.7km/h 92% 0.08in /  2.0mm 77 W/m2
16:03 54.1 °F /  12.3 °C 51.8 °F /  11 °C 29.4in /  996.3hPa East 0.9mph /  1.4km/h 6mph /  9.7km/h 92% 0.09in /  2.3mm 77 W/m2
16:08 54.1 °F /  12.3 °C 51.8 °F /  11 °C 29.4in /  996.3hPa NW 2.9mph /  4.7km/h 8mph /  12.9km/h 92% 0.1in /  2.5mm 183 W/m2
16:13 54.3 °F /  12.4 °C 52.3 °F /  11.3 °C 29.4in /  995.9hPa SSW 4.9mph /  7.9km/h 8mph /  12.9km/h 93% 0.09in /  2.3mm 188 W/m2
16:18 54.5 °F /  12.5 °C 52.2 °F /  11.2 °C 29.4in /  996.3hPa ENE 4.9mph /  7.9km/h 5mph /  8km/h 92% 0.1in /  2.5mm 86 W/m2
16:23 54.7 °F /  12.6 °C 52.3 °F /  11.3 °C 29.4in /  996.3hPa WSW 0.9mph /  1.4km/h 5mph /  8km/h 92% 0.1in /  2.5mm 120 W/m2
16:28 54.7 °F /  12.6 °C 52.3 °F /  11.3 °C 29.4in /  996.3hPa NNW 2mph /  3.2km/h 11mph /  17.7km/h 92% 0.1in /  2.5mm 58 W/m2
16:33 54.7 °F /  12.6 °C 52.3 °F /  11.3 °C 29.4in /  996.3hPa NW 2mph /  3.2km/h 5mph /  8km/h 92% 0.13in /  3.3mm 40 W/m2
16:38 54.5 °F /  12.5 °C 52.2 °F /  11.2 °C 29.4in /  996.3hPa WNW 8.1mph /  13km/h 11mph /  17.7km/h 92% 0.17in /  4.3mm 26 W/m2
16:43 54.3 °F /  12.4 °C 52 °F /  11.1 °C 29.4in /  996.6hPa NW 4.9mph /  7.9km/h 7mph /  11.3km/h 92% 0.2in /  5.1mm 18 W/m2
16:48 54.1 °F /  12.3 °C 52.2 °F /  11.2 °C 29.4in /  996.6hPa West 6.9mph /  11.1km/h 12mph /  19.3km/h 93% 0.28in /  7.1mm 37 W/m2
16:53 53.6 °F /  12 °C 51.1 °F /  10.6 °C 29.4in /  996.6hPa West 12.1mph /  19.5km/h 14mph /  22.5km/h 91% 0.34in /  8.6mm 62 W/m2
16:58 53.2 °F /  11.8 °C 50.4 °F /  10.2 °C 29.4in /  997.0hPa WSW 12.1mph /  19.5km/h 12mph /  19.3km/h 90% 0.35in /  8.9mm 70 W/m2
17:03 53.4 °F /  11.9 °C 50.9 °F /  10.5 °C 29.4in /  996.6hPa WNW 8.9mph /  14.3km/h 11mph /  17.7km/h 91% 0.33in /  8.4mm 107 W/m2
17:08 53.6 °F /  12 °C 51.1 °F /  10.6 °C 29.4in /  997.0hPa West 6mph /  9.7km/h 18mph /  29km/h 91% 0.33in /  8.4mm 200 W/m2
17:13 53.4 °F /  11.9 °C 50.9 °F /  10.5 °C 29.4in /  997.0hPa WNW 6.9mph /  11.1km/h 14mph /  22.5km/h 91% 0.32in /  8.1mm 155 W/m2
17:18 53.4 °F /  11.9 °C 50.9 °F /  10.5 °C 29.4in /  997.0hPa WNW 6.9mph /  11.1km/h 18mph /  29km/h 91% 0.31in /  7.9mm 156 W/m2
17:23 53.2 °F /  11.8 °C 50.7 °F /  10.4 °C 29.4in /  997.0hPa West 8.9mph /  14.3km/h 9mph /  14.5km/h 91% 0.31in /  7.9mm 127 W/m2
17:28 53.2 °F /  11.8 °C 50.7 °F /  10.4 °C 29.4in /  997.0hPa WNW 4mph /  6.4km/h 8mph /  12.9km/h 91% 0.31in /  7.9mm 120 W/m2
17:33 53.1 °F /  11.7 °C 50.5 °F /  10.3 °C 29.4in /  997.0hPa WNW 4.9mph /  7.9km/h 8mph /  12.9km/h 91% 0.28in /  7.1mm 214 W/m2
17:38 53.1 °F /  11.7 °C 50.5 °F /  10.3 °C 29.4in /  997.0hPa WSW 4.9mph /  7.9km/h 8mph /  12.9km/h 91% 0.23in /  5.8mm 132 W/m2
17:43 53.1 °F /  11.7 °C 50.5 °F /  10.3 °C 29.4in /  997.0hPa West 2.9mph /  4.7km/h 11mph /  17.7km/h 91% 0.19in /  4.8mm 123 W/m2
17:48 53.1 °F /  11.7 °C 50.5 °F /  10.3 °C 29.4in /  997.0hPa West 8.1mph /  13km/h 11mph /  17.7km/h 91% 0.09in /  2.3mm 155 W/m2
17:53 53.2 °F /  11.8 °C 50.7 °F /  10.4 °C 29.4in /  997.0hPa West 6.9mph /  11.1km/h 7mph /  11.3km/h 91% 0.04in /  1.0mm 192 W/m2
17:58 53.4 °F /  11.9 °C 50.9 °F /  10.5 °C 29.4in /  997.0hPa West 8.1mph /  13km/h 9mph /  14.5km/h 91% 0.02in /  0.5mm 179 W/m2
18:03 53.4 °F /  11.9 °C 50.9 °F /  10.5 °C 29.4in /  997.0hPa West 10.1mph /  16.3km/h 10mph /  16.1km/h 91% 0.02in /  0.5mm 121 W/m2
18:08 53.8 °F /  12.1 °C 51.3 °F /  10.7 °C 29.4in /  997.0hPa WNW 2mph /  3.2km/h 10mph /  16.1km/h 91% 0.01in /  0.2mm 271 W/m2
18:13 54.1 °F /  12.3 °C 51.6 °F /  10.9 °C 29.4in /  997.0hPa NW 6.9mph /  11.1km/h 13mph /  20.9km/h 91% 0.01in /  0.2mm 171 W/m2
18:18 54.5 °F /  12.5 °C 52 °F /  11.1 °C 29.4in /  997.0hPa WSW 2mph /  3.2km/h 7mph /  11.3km/h 91% 0.01in /  0.2mm 171 W/m2
18:23 54.7 °F /  12.6 °C 51.8 °F /  11 °C 29.5in /  997.3hPa West 6.9mph /  11.1km/h 13mph /  20.9km/h 90% 0.01in /  0.2mm 156 W/m2
18:28 54.7 °F /  12.6 °C 51.8 °F /  11 °C 29.5in /  997.3hPa WNW 4mph /  6.4km/h 7mph /  11.3km/h 90% 0in /  0.0mm 227 W/m2
18:33 54.7 °F /  12.6 °C 51.8 °F /  11 °C 29.5in /  997.3hPa West 2mph /  3.2km/h 11mph /  17.7km/h 90% 0in /  0.0mm 120 W/m2
18:38 54.7 °F /  12.6 °C 51.8 °F /  11 °C 29.5in /  997.3hPa West 6mph /  9.7km/h 6mph /  9.7km/h 90% 0in /  0.0mm 125 W/m2
18:43 54.7 °F /  12.6 °C 51.8 °F /  11 °C 29.5in /  997.6hPa WNW 4mph /  6.4km/h 7mph /  11.3km/h 90% 0in /  0.0mm 146 W/m2
18:48 54.7 °F /  12.6 °C 51.8 °F /  11 °C 29.5in /  997.6hPa West 8.9mph /  14.3km/h 9mph /  14.5km/h 90% 0in /  0.0mm 139 W/m2
18:53 54.9 °F /  12.7 °C 52 °F /  11.1 °C 29.5in /  998.0hPa West 6.9mph /  11.1km/h 8mph /  12.9km/h 90% 0in /  0.0mm 95 W/m2
Juneau County Weather
Compliments of Weather Underground - 4 mb